createdAt,value
2018-07-23T00:01:21.407Z,3.03
2018-07-23T00:03:49.246Z,2.20
2018-07-23T00:06:17.662Z,2.00
2018-07-23T00:08:45.270Z,2.20
2018-07-23T00:11:13.514Z,3.90
2018-07-23T00:13:41.164Z,2.40
2018-07-23T00:16:08.807Z,6.47
2018-07-23T00:18:36.785Z,3.53
2018-07-23T00:21:04.606Z,2.67
2018-07-23T00:23:32.582Z,2.70
2018-07-23T00:26:00.714Z,2.80
2018-07-23T00:28:28.600Z,3.50
2018-07-23T00:30:56.617Z,3.07
2018-07-23T00:33:24.263Z,2.80
2018-07-23T00:35:51.897Z,3.17
2018-07-23T00:38:19.642Z,2.60
2018-07-23T00:40:47.626Z,4.43
2018-07-23T00:43:15.228Z,2.40
2018-07-23T00:45:43.243Z,5.03
2018-07-23T00:48:10.846Z,7.30
2018-07-23T00:50:38.848Z,3.90
2018-07-23T00:53:06.733Z,2.50
2018-07-23T00:55:34.845Z,2.97
2018-07-23T00:58:02.769Z,2.10
2018-07-23T01:00:30.505Z,1.87
2018-07-23T01:03:02.661Z,2.53
2018-07-23T01:05:30.581Z,2.80
2018-07-23T01:07:58.216Z,2.57
2018-07-23T01:10:26.262Z,2.20
2018-07-23T01:12:53.946Z,2.10
2018-07-23T01:15:21.605Z,8.00
2018-07-23T01:17:49.292Z,4.07
2018-07-23T01:20:17.162Z,3.20
2018-07-23T01:22:44.864Z,3.30
2018-07-23T01:25:13.141Z,2.70
2018-07-23T01:27:41.069Z,2.17
2018-07-23T01:30:08.738Z,2.33
2018-07-23T01:32:36.340Z,2.73
2018-07-23T01:35:04.008Z,5.83
2018-07-23T01:37:31.960Z,2.43
2018-07-23T01:39:59.956Z,3.03
2018-07-23T01:42:28.096Z,2.20
2018-07-23T01:44:56.234Z,2.23
2018-07-23T01:47:23.854Z,2.33
2018-07-23T01:49:51.506Z,2.50
2018-07-23T01:52:19.384Z,2.20
2018-07-23T01:54:47.619Z,1.80
2018-07-23T01:57:15.251Z,2.27
2018-07-23T01:59:43.181Z,2.07
2018-07-23T02:02:10.875Z,2.40
2018-07-23T02:04:38.625Z,3.50
2018-07-23T02:07:06.877Z,2.50
2018-07-23T02:09:34.589Z,2.67
2018-07-23T02:12:02.763Z,2.20
2018-07-23T02:14:30.388Z,2.10
2018-07-23T02:16:58.794Z,3.40
2018-07-23T02:19:26.459Z,1.83
2018-07-23T02:21:54.100Z,5.87
2018-07-23T02:24:22.188Z,1.87
2018-07-23T02:26:50.268Z,2.63
2018-07-23T02:29:17.895Z,2.07
2018-07-23T02:31:45.798Z,2.20
2018-07-23T02:34:13.461Z,7.10
2018-07-23T02:36:41.101Z,1.83
2018-07-23T02:39:10.762Z,2.90
2018-07-23T02:41:38.426Z,2.10
2018-07-23T02:44:06.107Z,2.10
2018-07-23T02:46:33.767Z,1.97
2018-07-23T02:49:01.406Z,2.97
2018-07-23T02:51:29.582Z,1.80
2018-07-23T02:53:57.590Z,2.13
2018-07-23T02:56:25.290Z,2.23
2018-07-23T02:58:52.909Z,1.83
2018-07-23T03:01:20.577Z,3.10
2018-07-23T03:03:48.196Z,2.10
2018-07-23T03:06:16.218Z,2.00
2018-07-23T03:08:43.864Z,2.17
2018-07-23T03:11:11.529Z,1.97
2018-07-23T03:13:39.148Z,2.07
2018-07-23T03:16:07.004Z,2.47
2018-07-23T03:18:35.353Z,2.10
2018-07-23T03:21:02.995Z,2.10
2018-07-23T03:23:30.660Z,1.60
2018-07-23T03:25:58.350Z,2.17
2018-07-23T03:28:26.384Z,2.40
2018-07-23T03:30:54.304Z,2.73
2018-07-23T03:33:21.989Z,2.67
2018-07-23T03:35:50.381Z,1.97
2018-07-23T03:38:18.012Z,2.73
2018-07-23T03:40:46.480Z,2.30
2018-07-23T03:43:14.123Z,2.10
2018-07-23T03:45:41.800Z,1.80
2018-07-23T03:48:09.425Z,2.20
2018-07-23T03:50:37.028Z,1.93
2018-07-23T03:53:04.705Z,2.60
2018-07-23T03:55:32.812Z,2.47
2018-07-23T03:58:00.483Z,1.87
2018-07-23T04:00:28.094Z,2.13
2018-07-23T04:02:56.164Z,2.03
2018-07-23T04:05:24.009Z,2.10
2018-07-23T04:07:52.157Z,2.37
2018-07-23T04:10:19.827Z,1.97
2018-07-23T04:12:47.474Z,1.90
2018-07-23T04:15:15.381Z,2.93
2018-07-23T04:17:48.180Z,1.70
2018-07-23T04:20:15.860Z,2.10
2018-07-23T04:22:43.958Z,1.87
2018-07-23T04:25:11.928Z,2.17
2018-07-23T04:27:39.634Z,1.73
2018-07-23T04:30:07.309Z,2.30
2018-07-23T04:32:35.472Z,2.13
2018-07-23T04:35:03.090Z,2.00
2018-07-23T04:37:30.740Z,2.17
2018-07-23T04:39:58.434Z,2.73
2018-07-23T04:42:26.093Z,1.70
2018-07-23T04:44:54.044Z,1.70
2018-07-23T04:47:22.036Z,2.47
2018-07-23T04:49:49.673Z,1.40
2018-07-23T04:52:17.386Z,1.67
2018-07-23T04:54:45.313Z,1.60
2018-07-23T04:57:13.594Z,1.70
2018-07-23T04:59:41.478Z,3.00
2018-07-23T05:02:09.781Z,1.87
2018-07-23T05:04:37.453Z,1.60
2018-07-23T05:07:05.349Z,1.83
2018-07-23T05:09:33.017Z,1.70
2018-07-23T05:12:00.657Z,1.53
2018-07-23T05:14:29.076Z,2.00
2018-07-23T05:16:57.065Z,2.50
2018-07-23T05:19:24.700Z,1.90
2018-07-23T05:21:52.359Z,2.00
2018-07-23T05:24:20.347Z,2.87
2018-07-23T05:26:48.342Z,1.63
2018-07-23T05:29:16.464Z,2.00
2018-07-23T05:31:44.513Z,2.00
2018-07-23T05:34:12.610Z,1.40
2018-07-23T05:36:40.567Z,1.90
2018-07-23T05:39:10.899Z,1.57
2018-07-23T05:41:39.168Z,1.60
2018-07-23T05:44:06.824Z,2.00
2018-07-23T05:46:34.480Z,2.13
2018-07-23T05:49:02.143Z,1.80
2018-07-23T05:51:30.260Z,1.83
2018-07-23T05:53:57.921Z,1.70
2018-07-23T05:56:25.593Z,1.70
2018-07-23T05:58:53.288Z,2.20
2018-07-23T06:01:21.416Z,1.83
2018-07-23T06:03:49.079Z,1.53
2018-07-23T06:06:17.071Z,2.60
2018-07-23T06:08:44.692Z,3.00
2018-07-23T06:11:12.321Z,1.60
2018-07-23T06:13:40.309Z,1.70
2018-07-23T06:16:08.116Z,1.60
2018-07-23T06:18:35.787Z,2.10
2018-07-23T06:21:03.713Z,1.60
2018-07-23T06:23:31.426Z,1.80
2018-07-23T06:25:59.332Z,1.70
2018-07-23T06:28:27.324Z,1.50
2018-07-23T06:30:55.205Z,1.83
2018-07-23T06:33:22.889Z,1.90
2018-07-23T06:35:50.760Z,1.50
2018-07-23T06:38:18.390Z,1.77
2018-07-23T06:40:46.469Z,2.30
2018-07-23T06:43:14.107Z,1.73
2018-07-23T06:45:41.828Z,1.70
2018-07-23T06:48:09.870Z,1.87
2018-07-23T06:50:38.018Z,2.23
2018-07-23T06:53:06.151Z,1.67
2018-07-23T06:55:34.101Z,1.60
2018-07-23T06:58:02.083Z,1.97
2018-07-23T07:00:29.767Z,1.83
2018-07-23T07:02:57.409Z,2.17
2018-07-23T07:05:25.337Z,1.80
2018-07-23T07:07:53.038Z,2.00
2018-07-23T07:10:21.024Z,1.50
2018-07-23T07:12:48.678Z,1.90
2018-07-23T07:15:16.657Z,1.97
2018-07-23T07:17:44.321Z,1.90
2018-07-23T07:20:12.060Z,1.90
2018-07-23T07:22:39.663Z,1.80
2018-07-23T07:25:07.312Z,1.80
2018-07-23T07:27:35.240Z,2.27
2018-07-23T07:30:03.017Z,1.73
2018-07-23T07:32:30.690Z,1.97
2018-07-23T07:34:58.354Z,1.63
2018-07-23T07:37:25.989Z,1.97
2018-07-23T07:39:54.236Z,1.73
2018-07-23T07:42:21.939Z,2.70
2018-07-23T07:44:49.580Z,1.60
2018-07-23T07:47:17.873Z,1.60
2018-07-23T07:49:45.551Z,4.20
2018-07-23T07:52:13.481Z,1.60
2018-07-23T07:54:41.404Z,1.50
2018-07-23T07:57:09.231Z,1.90
2018-07-23T07:59:37.118Z,1.97
2018-07-23T08:02:04.801Z,1.47
2018-07-23T08:04:32.521Z,2.17
2018-07-23T08:07:00.436Z,2.07
2018-07-23T08:09:28.157Z,1.80
2018-07-23T08:11:56.298Z,1.77
2018-07-23T08:14:23.963Z,1.87
2018-07-23T08:16:51.616Z,1.93
2018-07-23T08:19:19.550Z,1.70
2018-07-23T08:21:47.521Z,1.60
2018-07-23T08:24:15.461Z,2.10
2018-07-23T08:26:43.452Z,1.67
2018-07-23T08:29:11.575Z,2.00
2018-07-23T08:31:39.305Z,1.67
2018-07-23T08:34:06.897Z,5.70
2018-07-23T08:36:35.278Z,1.53
2018-07-23T08:39:03.147Z,1.90
2018-07-23T08:41:31.080Z,1.70
2018-07-23T08:43:58.766Z,1.70
2018-07-23T08:46:26.395Z,1.93
2018-07-23T08:48:54.042Z,1.40
2018-07-23T08:51:21.826Z,2.10
2018-07-23T08:53:49.474Z,1.77
2018-07-23T08:56:17.998Z,2.57
2018-07-23T08:58:46.065Z,3.30
2018-07-23T09:01:14.223Z,1.80
2018-07-23T09:03:42.276Z,1.70
2018-07-23T09:06:10.169Z,1.97
2018-07-23T09:08:38.162Z,1.80
2018-07-23T09:11:05.977Z,2.03
2018-07-23T09:13:34.058Z,2.13
2018-07-23T09:16:02.099Z,1.50
2018-07-23T09:18:30.119Z,1.40
2018-07-23T09:20:57.767Z,1.53
2018-07-23T09:23:25.402Z,2.17
2018-07-23T09:25:53.121Z,1.70
2018-07-23T09:28:21.347Z,1.83
2018-07-23T09:30:51.437Z,2.10
2018-07-23T09:33:21.042Z,2.30
2018-07-23T09:35:49.021Z,1.50
2018-07-23T09:38:16.674Z,1.60
2018-07-23T09:40:44.623Z,1.60
2018-07-23T09:43:12.806Z,1.70
2018-07-23T09:45:40.478Z,1.80
2018-07-23T09:48:08.684Z,1.90
2018-07-23T09:50:36.396Z,1.83
2018-07-23T09:53:04.257Z,1.50
2018-07-23T09:55:32.050Z,2.23
2018-07-23T09:57:59.679Z,1.90
2018-07-23T10:00:33.265Z,3.17
2018-07-23T10:03:00.922Z,2.00
2018-07-23T10:05:28.584Z,1.93
2018-07-23T10:07:56.641Z,1.83
2018-07-23T10:10:24.660Z,2.30
2018-07-23T10:12:52.613Z,2.20
2018-07-23T10:15:20.649Z,5.53
2018-07-23T10:17:48.610Z,1.80
2018-07-23T10:20:16.826Z,1.73
2018-07-23T10:22:44.502Z,3.83
2018-07-23T10:25:12.421Z,2.57
2018-07-23T10:27:40.385Z,2.47
2018-07-23T10:30:08.016Z,2.40
2018-07-23T10:32:35.710Z,1.90
2018-07-23T10:35:03.377Z,2.73
2018-07-23T10:37:31.280Z,2.30
2018-07-23T10:39:58.994Z,2.03
2018-07-23T10:42:26.625Z,1.70
2018-07-23T10:44:54.676Z,1.80
2018-07-23T10:47:22.700Z,2.10
2018-07-23T10:49:50.300Z,1.70
2018-07-23T10:52:18.584Z,1.70
2018-07-23T10:54:46.467Z,2.00
2018-07-23T10:57:14.492Z,2.80
2018-07-23T10:59:42.525Z,2.03
2018-07-23T11:02:10.707Z,1.73
2018-07-23T11:04:38.349Z,2.60
2018-07-23T11:07:06.043Z,1.80
2018-07-23T11:09:33.656Z,1.60
2018-07-23T11:12:01.298Z,1.90
2018-07-23T11:14:29.225Z,1.97
2018-07-23T11:16:57.205Z,2.10
2018-07-23T11:19:25.151Z,2.37
2018-07-23T11:21:52.998Z,1.90
2018-07-23T11:24:20.645Z,1.90
2018-07-23T11:26:48.571Z,2.00
2018-07-23T11:29:17.048Z,2.20
2018-07-23T11:31:45.163Z,2.47
2018-07-23T11:34:13.291Z,1.97
2018-07-23T11:36:41.592Z,2.00
2018-07-23T11:39:11.225Z,1.80
2018-07-23T11:41:39.838Z,2.00
2018-07-23T11:44:07.459Z,3.37
2018-07-23T11:46:35.660Z,2.10
2018-07-23T11:49:04.069Z,2.73
2018-07-23T11:51:31.677Z,1.80
2018-07-23T11:53:59.514Z,3.67
2018-07-23T11:56:27.284Z,2.07
2018-07-23T11:58:55.226Z,2.50
2018-07-23T12:01:23.519Z,2.03
2018-07-23T12:03:51.440Z,1.97
2018-07-23T12:06:19.353Z,1.83
2018-07-23T12:08:47.007Z,1.80
2018-07-23T12:11:14.685Z,2.00
2018-07-23T12:13:42.315Z,3.83
2018-07-23T12:16:10.276Z,2.30
2018-07-23T12:18:37.982Z,2.60
2018-07-23T12:21:05.594Z,1.60
2018-07-23T12:23:33.226Z,2.30
2018-07-23T12:26:00.900Z,1.97
2018-07-23T12:28:28.581Z,1.80
2018-07-23T12:30:56.236Z,2.00
2018-07-23T12:33:24.254Z,3.30
2018-07-23T12:35:52.317Z,2.20
2018-07-23T12:38:20.204Z,2.33
2018-07-23T12:40:47.969Z,2.50
2018-07-23T12:43:16.221Z,2.07
2018-07-23T12:45:43.911Z,2.80
2018-07-23T12:48:11.851Z,3.07
2018-07-23T12:50:39.481Z,2.60
2018-07-23T12:53:07.523Z,2.10
2018-07-23T12:55:35.228Z,2.27
2018-07-23T12:58:02.941Z,2.57
2018-07-23T13:00:30.576Z,2.23
2018-07-23T13:02:58.245Z,2.57
2018-07-23T13:05:30.938Z,2.30
2018-07-23T13:07:59.569Z,2.53
2018-07-23T13:10:27.467Z,3.30
2018-07-23T13:12:55.124Z,2.77
2018-07-23T13:15:23.265Z,2.20
2018-07-23T13:17:51.370Z,2.43
2018-07-23T13:20:19.020Z,2.20
2018-07-23T13:22:47.449Z,2.20
2018-07-23T13:25:15.381Z,3.20
2018-07-23T13:27:43.539Z,2.33
2018-07-23T13:30:11.257Z,2.13
2018-07-23T13:32:39.301Z,1.77
2018-07-23T13:35:07.031Z,3.00
2018-07-23T13:37:34.786Z,2.50
2018-07-23T13:40:02.477Z,2.30
2018-07-23T13:42:30.348Z,2.33
2018-07-23T13:44:58.001Z,2.63
2018-07-23T13:47:25.667Z,1.77
2018-07-23T13:49:53.334Z,2.80
2018-07-23T13:52:21.220Z,1.80
2018-07-23T13:54:48.924Z,2.40
2018-07-23T13:57:16.931Z,3.43
2018-07-23T13:59:44.908Z,2.53
2018-07-23T14:02:13.244Z,2.33
2018-07-23T14:04:40.980Z,2.60
2018-07-23T14:07:08.910Z,2.30
2018-07-23T14:09:36.558Z,2.83
2018-07-23T14:12:04.503Z,2.43
2018-07-23T14:14:32.386Z,2.50
2018-07-23T14:17:00.119Z,2.33
2018-07-23T14:19:27.801Z,2.33
2018-07-23T14:21:55.700Z,2.40
2018-07-23T14:24:23.362Z,2.23
2018-07-23T14:26:51.989Z,2.17
2018-07-23T14:29:20.213Z,2.20
2018-07-23T14:31:48.427Z,2.20
2018-07-23T14:34:16.106Z,1.90
2018-07-23T14:36:43.776Z,1.97
2018-07-23T14:39:13.285Z,1.50
2018-07-23T14:41:41.283Z,2.00
2018-07-23T14:44:09.272Z,2.00
2018-07-23T14:46:37.277Z,1.90
2018-07-23T14:49:05.154Z,2.20
2018-07-23T14:51:32.828Z,2.33
2018-07-23T14:54:00.874Z,2.03
2018-07-23T14:56:28.509Z,1.70
2018-07-23T14:58:56.234Z,2.07
2018-07-23T15:01:23.876Z,2.10
2018-07-23T15:03:51.526Z,2.03
2018-07-23T15:06:19.485Z,1.90
2018-07-23T15:08:47.656Z,1.80
2018-07-23T15:11:15.297Z,1.60
2018-07-23T15:13:43.073Z,1.90
2018-07-23T15:16:11.013Z,1.90
2018-07-23T15:18:38.666Z,1.60
2018-07-23T15:21:06.415Z,1.70
2018-07-23T15:23:34.074Z,2.03
2018-07-23T15:26:01.845Z,1.90
2018-07-23T15:28:29.840Z,1.77
2018-07-23T15:30:57.553Z,3.53
2018-07-23T15:33:25.559Z,1.70
2018-07-23T15:35:53.595Z,2.80
2018-07-23T15:38:21.909Z,2.17
2018-07-23T15:40:49.597Z,2.37
2018-07-23T15:43:17.404Z,2.83
2018-07-23T15:45:45.471Z,2.10
2018-07-23T15:48:13.000Z,2.33
2018-07-23T15:50:41.223Z,2.13
2018-07-23T15:53:09.210Z,3.20
2018-07-23T15:55:36.904Z,1.80
2018-07-23T15:58:05.032Z,2.33
2018-07-23T16:00:32.661Z,1.93
2018-07-23T16:03:00.351Z,1.93
2018-07-23T16:05:28.130Z,1.90
2018-07-23T16:07:56.107Z,2.20
2018-07-23T16:10:24.033Z,2.00
2018-07-23T16:12:51.677Z,2.00
2018-07-23T16:15:19.404Z,2.00
2018-07-23T16:17:47.518Z,3.13
2018-07-23T16:20:15.166Z,2.50
2018-07-23T16:22:42.892Z,2.07
2018-07-23T16:25:11.249Z,2.23
2018-07-23T16:27:38.893Z,2.00
2018-07-23T16:30:07.594Z,2.10
2018-07-23T16:32:35.263Z,1.60
2018-07-23T16:35:03.144Z,2.23
2018-07-23T16:37:30.822Z,1.77
2018-07-23T16:39:58.776Z,2.37
2018-07-23T16:42:26.428Z,1.73
2018-07-23T16:44:54.397Z,2.30
2018-07-23T16:47:22.071Z,1.63
2018-07-23T16:49:49.734Z,1.80
2018-07-23T16:52:17.580Z,2.30
2018-07-23T16:54:45.385Z,2.17
2018-07-23T16:57:13.052Z,2.20
2018-07-23T16:59:41.279Z,1.93
2018-07-23T17:02:08.962Z,2.30
2018-07-23T17:04:37.133Z,1.80
2018-07-23T17:07:04.850Z,2.23
2018-07-23T17:09:32.524Z,1.80
2018-07-23T17:12:00.147Z,3.40
2018-07-23T17:14:28.071Z,2.00
2018-07-23T17:16:55.830Z,2.10
2018-07-23T17:19:23.492Z,6.10
2018-07-23T17:21:51.170Z,1.77
2018-07-23T17:24:18.846Z,2.13
2018-07-23T17:26:46.534Z,2.27
2018-07-23T17:29:14.178Z,1.70
2018-07-23T17:31:42.381Z,1.70
2018-07-23T17:34:10.015Z,2.47
2018-07-23T17:36:37.663Z,1.83
2018-07-23T17:39:08.703Z,1.90
2018-07-23T17:41:36.370Z,1.57
2018-07-23T17:44:04.041Z,2.03
2018-07-23T17:46:31.753Z,1.97
2018-07-23T17:48:59.764Z,1.60
2018-07-23T17:51:27.729Z,1.70
2018-07-23T17:53:55.424Z,2.13
2018-07-23T17:56:23.327Z,1.73
2018-07-23T17:58:51.043Z,1.83
2018-07-23T18:01:19.245Z,2.60
2018-07-23T18:03:47.173Z,2.10
2018-07-23T18:06:15.165Z,2.30
2018-07-23T18:08:42.861Z,2.13
2018-07-23T18:11:10.553Z,1.50
2018-07-23T18:13:38.454Z,1.60
2018-07-23T18:16:06.350Z,1.83
2018-07-23T18:18:35.449Z,1.97
2018-07-23T18:21:03.316Z,2.20
2018-07-23T18:23:30.970Z,2.00
2018-07-23T18:25:58.664Z,2.30
2018-07-23T18:28:26.576Z,1.77
2018-07-23T18:30:54.830Z,1.70
2018-07-23T18:33:22.476Z,1.77
2018-07-23T18:35:50.181Z,2.20
2018-07-23T18:38:18.218Z,2.20
2018-07-23T18:40:46.183Z,1.83
2018-07-23T18:43:14.399Z,1.63
2018-07-23T18:45:42.518Z,1.60
2018-07-23T18:49:26.865Z,2.27
2018-07-23T18:51:55.034Z,1.90
2018-07-23T18:54:24.477Z,2.40
2018-07-23T18:56:53.866Z,2.03
2018-07-23T18:59:21.617Z,2.33
2018-07-23T19:01:50.792Z,1.93
2018-07-23T19:04:18.452Z,2.50
2018-07-23T19:06:46.585Z,1.70
2018-07-23T19:09:16.758Z,2.53
2018-07-23T19:11:45.492Z,2.30
2018-07-23T19:14:14.488Z,1.87
2018-07-23T19:16:42.375Z,1.60
2018-07-23T19:19:10.138Z,1.60
2018-07-23T19:21:38.151Z,1.83
2018-07-23T19:24:05.847Z,1.77
2018-07-23T19:26:33.498Z,2.03
2018-07-23T19:29:01.153Z,1.80
2018-07-23T19:31:29.301Z,2.10
2018-07-23T19:33:58.519Z,2.33
2018-07-23T19:36:26.588Z,2.00
2018-07-23T19:38:55.474Z,2.00
2018-07-23T19:41:23.158Z,2.50
2018-07-23T19:43:51.340Z,7.50
2018-07-23T19:46:19.083Z,13.37
2018-07-23T19:48:47.148Z,6.40
2018-07-23T19:51:14.836Z,10.70
2018-07-23T19:53:42.494Z,14.60
2018-07-23T19:56:10.794Z,6.43
2018-07-23T19:58:39.189Z,15.00
2018-07-23T20:01:06.902Z,35.23
2018-07-23T20:03:34.935Z,14.47
2018-07-23T20:06:03.285Z,45.77
2018-07-23T20:08:31.315Z,13.10
2018-07-23T20:10:58.963Z,12.60
2018-07-23T20:13:26.860Z,22.87
2018-07-23T20:15:55.295Z,8.83
2018-07-23T20:18:23.328Z,13.60
2018-07-23T20:20:51.381Z,14.83
2018-07-23T20:23:19.025Z,6.60
2018-07-23T20:25:46.717Z,8.93
2018-07-23T20:28:14.424Z,11.53
2018-07-23T20:30:42.827Z,7.13
2018-07-23T20:33:10.798Z,5.53
2018-07-23T20:35:38.424Z,7.00
2018-07-23T20:38:06.215Z,7.37
2018-07-23T20:40:34.007Z,9.23
2018-07-23T20:43:01.776Z,18.37
2018-07-23T20:45:29.742Z,10.23
2018-07-23T20:47:57.877Z,4.90
2018-07-23T20:50:25.578Z,6.07
2018-07-23T20:52:53.811Z,5.13
2018-07-23T20:55:21.535Z,13.73
2018-07-23T20:57:49.499Z,6.77
2018-07-23T21:00:17.282Z,7.63
2018-07-23T21:02:44.893Z,13.13
2018-07-23T21:05:12.797Z,8.90
2018-07-23T21:07:40.726Z,11.23
2018-07-23T21:10:08.384Z,5.70
2018-07-23T21:12:36.645Z,11.57
2018-07-23T21:15:05.326Z,18.67
2018-07-23T21:17:32.972Z,12.73
2018-07-23T21:20:00.674Z,14.20
2018-07-23T21:22:28.332Z,6.37
2018-07-23T21:24:56.374Z,5.73
2018-07-23T21:27:24.054Z,12.47
2018-07-23T21:29:51.961Z,9.10
2018-07-23T21:32:19.971Z,6.63
2018-07-23T21:34:48.255Z,7.60
2018-07-23T21:37:16.627Z,8.23
2018-07-23T21:39:44.629Z,7.40
2018-07-23T21:42:12.559Z,5.90
2018-07-23T21:44:40.307Z,7.47
2018-07-23T21:47:08.255Z,5.80
2018-07-23T21:49:35.910Z,7.00
2018-07-23T21:52:03.674Z,4.53
2018-07-23T21:54:31.880Z,7.33
2018-07-23T21:56:59.554Z,8.83
2018-07-23T21:59:27.217Z,9.47
2018-07-23T22:01:55.086Z,6.00
2018-07-23T22:04:22.838Z,5.00
2018-07-23T22:06:50.546Z,10.40
2018-07-23T22:09:18.853Z,5.30
2018-07-23T22:11:46.492Z,5.93
2018-07-23T22:14:14.191Z,3.93
2018-07-23T22:16:42.160Z,5.57
2018-07-23T22:19:09.882Z,5.27
2018-07-23T22:21:38.059Z,4.20
2018-07-23T22:24:06.177Z,12.73
2018-07-23T22:26:33.874Z,5.67
2018-07-23T22:29:01.896Z,5.17
2018-07-23T22:31:29.872Z,4.63
2018-07-23T22:33:57.827Z,3.87
2018-07-23T22:36:25.618Z,7.73
2018-07-23T22:38:53.326Z,4.30
2018-07-23T22:41:21.089Z,5.30
2018-07-23T22:43:49.075Z,3.33
2018-07-23T22:46:17.252Z,6.13
2018-07-23T22:48:45.057Z,3.83
2018-07-23T22:51:12.742Z,4.03
2018-07-23T22:53:40.765Z,4.23
2018-07-23T22:56:08.783Z,4.63
2018-07-23T22:58:36.433Z,11.90
2018-07-23T23:01:04.202Z,4.13
2018-07-23T23:03:32.201Z,8.43
2018-07-23T23:06:00.163Z,4.23
2018-07-23T23:08:28.100Z,6.30
2018-07-23T23:10:55.781Z,5.03
2018-07-23T23:13:24.141Z,12.67
2018-07-23T23:15:52.041Z,4.27
2018-07-23T23:18:19.986Z,5.63
2018-07-23T23:20:47.958Z,8.13
2018-07-23T23:23:15.969Z,8.03
2018-07-23T23:25:43.606Z,5.10
2018-07-23T23:28:11.296Z,6.00
2018-07-23T23:30:38.947Z,4.67
2018-07-23T23:33:06.902Z,4.70
2018-07-23T23:35:34.797Z,4.00
2018-07-23T23:38:02.863Z,4.17
2018-07-23T23:40:30.565Z,3.57
2018-07-23T23:42:58.902Z,4.00
2018-07-23T23:45:27.153Z,5.50
2018-07-23T23:47:54.902Z,10.13
2018-07-23T23:50:22.590Z,5.00
2018-07-23T23:52:50.267Z,8.43
2018-07-23T23:55:18.620Z,8.33
2018-07-23T23:57:46.567Z,4.47
